Time,TemperatureF,DewpointF,PressureIn,WindDirection,WindDirectionDegrees,WindSpeedMPH,WindSpeedGustMPH,Humidity,HourlyPrecipIn,Conditions,Clouds,dailyrainin,SoftwareType,DateUTC
2013-07-21 00:01:00,74.0,70.0,29.95,SE,139,0.0,0.0,88,0.00,,,0.00,weatherlink.com 1.10,2013-07-21 04:01:00,
2013-07-21 00:16:00,73.9,71.0,29.96,SE,139,0.0,0.0,89,0.00,,,0.00,weatherlink.com 1.10,2013-07-21 04:16:00,
2013-07-21 00:31:00,73.7,71.0,29.96,SE,139,0.0,0.0,90,0.00,,,0.00,weatherlink.com 1.10,2013-07-21 04:31:00,
2013-07-21 00:46:00,73.5,71.0,29.95,SE,139,0.0,0.0,91,0.00,,,0.00,weatherlink.com 1.10,2013-07-21 04:46:00,
2013-07-21 01:01:00,73.2,71.0,29.95,SE,139,0.0,0.0,91,0.00,,,0.00,weatherlink.com 1.10,2013-07-21 05:01:00,
2013-07-21 01:16:00,73.0,71.0,29.95,SE,139,0.0,0.0,92,0.00,,,0.00,weatherlink.com 1.10,2013-07-21 05:16:00,
2013-07-21 01:31:00,73.0,71.0,29.95,SE,139,0.0,0.0,92,0.00,,,0.00,weatherlink.com 1.10,2013-07-21 05:31:00,
2013-07-21 01:46:00,73.2,71.0,29.95,SE,139,0.0,0.0,92,0.00,,,0.00,weatherlink.com 1.10,2013-07-21 05:46:00,
2013-07-21 02:01:00,73.3,71.0,29.95,SE,139,0.0,1.0,92,0.00,,,0.00,weatherlink.com 1.10,2013-07-21 06:01:00,
2013-07-21 02:16:00,73.3,71.0,29.95,SE,139,0.0,0.0,92,0.00,,,0.00,weatherlink.com 1.10,2013-07-21 06:16:00,
2013-07-21 02:31:00,73.2,71.0,29.94,SE,139,0.0,0.0,92,0.00,,,0.00,weatherlink.com 1.10,2013-07-21 06:31:00,
2013-07-21 02:46:00,73.2,71.0,29.93,SE,136,0.0,2.0,93,0.00,,,0.00,weatherlink.com 1.10,2013-07-21 06:46:00,
2013-07-21 03:01:00,73.0,71.0,29.93,SE,137,0.0,1.0,93,0.00,,,0.00,weatherlink.com 1.10,2013-07-21 07:01:00,
2013-07-21 03:16:00,73.0,71.0,29.93,SSE,153,0.0,3.0,94,0.00,,,0.00,weatherlink.com 1.10,2013-07-21 07:16:00,
2013-07-21 03:31:00,73.0,71.0,29.92,SSE,154,0.0,1.0,94,0.00,,,0.00,weatherlink.com 1.10,2013-07-21 07:31:00,
2013-07-21 03:46:00,73.0,71.0,29.93,SSE,155,0.0,3.0,94,0.00,,,0.00,weatherlink.com 1.10,2013-07-21 07:46:00,
2013-07-21 04:02:00,73.0,71.0,29.93,ENE,62,0.0,4.0,93,0.00,,,0.00,weatherlink.com 1.10,2013-07-21 08:02:00,
2013-07-21 04:17:00,73.0,71.0,29.93,ESE,102,0.0,1.0,93,0.00,,,0.00,weatherlink.com 1.10,2013-07-21 08:17:00,
2013-07-21 04:32:00,73.2,71.0,29.93,ESE,112,0.0,1.0,93,0.00,,,0.00,weatherlink.com 1.10,2013-07-21 08:32:00,
2013-07-21 04:47:00,73.2,71.0,29.92,ESE,112,0.0,1.0,93,0.00,,,0.00,weatherlink.com 1.10,2013-07-21 08:47:00,
2013-07-21 05:02:00,73.2,71.0,29.92,ESE,112,0.0,0.0,93,0.00,,,0.00,weatherlink.com 1.10,2013-07-21 09:02:00,
2013-07-21 05:17:00,73.2,71.0,29.92,ESE,112,0.0,1.0,93,0.00,,,0.00,weatherlink.com 1.10,2013-07-21 09:17:00,
2013-07-21 05:32:00,73.2,71.0,29.92,ESE,112,0.0,1.0,93,0.00,,,0.00,weatherlink.com 1.10,2013-07-21 09:32:00,
2013-07-21 05:47:00,73.2,71.0,29.92,ESE,112,0.0,0.0,93,0.00,,,0.00,weatherlink.com 1.10,2013-07-21 09:47:00,
2013-07-21 06:02:00,73.2,71.0,29.92,ESE,112,0.0,1.0,93,0.00,,,0.00,weatherlink.com 1.10,2013-07-21 10:02:00,
2013-07-21 06:17:00,73.2,71.0,29.92,NW,306,0.0,1.0,93,0.00,,,0.00,weatherlink.com 1.10,2013-07-21 10:17:00,
2013-07-21 06:32:00,73.2,71.0,29.92,SW,234,0.0,1.0,93,0.00,,,0.00,weatherlink.com 1.10,2013-07-21 10:32:00,
2013-07-21 06:47:00,73.3,71.0,29.92,SW,234,0.0,1.0,93,0.00,,,0.00,weatherlink.com 1.10,2013-07-21 10:47:00,
2013-07-21 07:02:00,73.5,71.0,29.93,SW,234,0.0,0.0,93,0.00,,,0.00,weatherlink.com 1.10,2013-07-21 11:02:00,
2013-07-21 07:17:00,73.5,71.0,29.93,SW,221,0.0,0.0,93,0.00,,,0.00,weatherlink.com 1.10,2013-07-21 11:17:00,
2013-07-21 07:32:00,73.7,71.0,29.94,SW,219,0.0,2.0,92,0.00,,,0.00,weatherlink.com 1.10,2013-07-21 11:32:00,
2013-07-21 07:47:00,73.9,72.0,29.94,South,189,0.0,0.0,92,0.00,,,0.00,weatherlink.com 1.10,2013-07-21 11:47:00,
2013-07-21 08:02:00,74.2,71.0,29.95,ENE,76,0.0,1.0,90,0.00,,,0.00,weatherlink.com 1.10,2013-07-21 12:02:00,
2013-07-21 08:17:00,74.4,71.0,29.96,NNE,27,0.0,0.0,89,0.00,,,0.00,weatherlink.com 1.10,2013-07-21 12:17:00,
2013-07-21 08:32:00,74.9,71.0,29.96,SE,133,0.0,2.0,87,0.00,,,0.00,weatherlink.com 1.10,2013-07-21 12:32:00,
2013-07-21 08:47:00,75.1,71.0,29.96,SE,124,0.0,3.0,86,0.00,,,0.00,weatherlink.com 1.10,2013-07-21 12:47:00,
2013-07-21 09:02:00,75.3,71.0,29.97,SSE,150,0.0,2.0,85,0.00,,,0.00,weatherlink.com 1.10,2013-07-21 13:02:00,
2013-07-21 09:17:00,75.1,71.0,29.97,SSE,150,0.0,1.0,86,0.00,,,0.00,weatherlink.com 1.10,2013-07-21 13:17:00,
2013-07-21 09:32:00,74.9,71.0,29.97,SSE,150,0.0,2.0,87,0.00,,,0.00,weatherlink.com 1.10,2013-07-21 13:32:00,
2013-07-21 09:47:00,75.1,71.0,29.97,SSE,150,0.0,0.0,87,0.00,,,0.00,weatherlink.com 1.10,2013-07-21 13:47:00,
2013-07-21 10:02:00,75.4,71.0,29.98,SSE,150,0.0,0.0,85,0.00,,,0.00,weatherlink.com 1.10,2013-07-21 14:02:00,
2013-07-21 10:17:00,76.0,72.0,29.98,SSE,150,0.0,1.0,86,0.00,,,0.00,weatherlink.com 1.10,2013-07-21 14:17:00,
2013-07-21 10:32:00,76.1,71.0,29.98,SSE,153,0.0,2.0,84,0.00,,,0.00,weatherlink.com 1.10,2013-07-21 14:32:00,
2013-07-21 10:47:00,76.5,71.0,29.98,SSE,147,0.0,1.0,84,0.00,,,0.00,weatherlink.com 1.10,2013-07-21 14:47:00,
2013-07-21 11:02:00,77.4,72.0,29.98,SE,132,0.0,1.0,83,0.00,,,0.00,weatherlink.com 1.10,2013-07-21 15:02:00,
2013-07-21 11:17:00,78.1,72.0,29.98,SSE,158,0.0,1.0,82,0.00,,,0.00,weatherlink.com 1.10,2013-07-21 15:17:00,
2013-07-21 11:32:00,79.0,71.0,29.98,SSE,167,0.0,4.0,77,0.00,,,0.00,weatherlink.com 1.10,2013-07-21 15:32:00,
2013-07-21 11:47:00,79.6,72.0,29.98,WSW,244,0.0,2.0,77,0.00,,,0.00,weatherlink.com 1.10,2013-07-21 15:47:00,
2013-07-21 12:02:00,79.9,72.0,29.98,South,188,0.0,5.0,76,0.00,,,0.00,weatherlink.com 1.10,2013-07-21 16:02:00,
2013-07-21 12:17:00,80.9,72.0,29.97,SE,132,1.0,2.0,74,0.00,,,0.00,weatherlink.com 1.10,2013-07-21 16:17:00,
2013-07-21 12:32:00,81.2,71.0,29.97,ESE,119,0.0,4.0,72,0.00,,,0.00,weatherlink.com 1.10,2013-07-21 16:32:00,
2013-07-21 12:47:00,82.0,72.0,29.96,West,265,0.0,3.0,72,0.00,,,0.00,weatherlink.com 1.10,2013-07-21 16:47:00,
2013-07-21 13:02:00,82.4,72.0,29.96,South,177,1.0,3.0,71,0.00,,,0.00,weatherlink.com 1.10,2013-07-21 17:02:00,
2013-07-21 13:17:00,83.6,72.0,29.95,South,178,0.0,2.0,69,0.00,,,0.00,weatherlink.com 1.10,2013-07-21 17:17:00,
2013-07-21 13:32:00,84.3,73.0,29.95,South,178,0.0,1.0,68,0.00,,,0.00,weatherlink.com 1.10,2013-07-21 17:32:00,
2013-07-21 13:47:00,85.1,73.0,29.93,SE,136,0.0,2.0,67,0.00,,,0.00,weatherlink.com 1.10,2013-07-21 17:47:00,
2013-07-21 14:02:00,86.3,72.0,29.93,SSE,160,1.0,1.0,63,0.00,,,0.00,weatherlink.com 1.10,2013-07-21 18:02:00,
2013-07-21 14:17:00,86.5,72.0,29.93,South,169,0.0,3.0,63,0.00,,,0.00,weatherlink.com 1.10,2013-07-21 18:17:00,
2013-07-21 14:32:00,86.5,73.0,29.92,South,169,0.0,1.0,65,0.00,,,0.00,weatherlink.com 1.10,2013-07-21 18:32:00,
2013-07-21 14:47:00,86.7,71.0,29.91,SSE,163,0.0,1.0,60,0.00,,,0.00,weatherlink.com 1.10,2013-07-21 18:47:00,
2013-07-21 15:02:00,87.0,73.0,29.90,SSE,163,0.0,0.0,64,0.00,,,0.00,weatherlink.com 1.10,2013-07-21 19:02:00,
2013-07-21 15:17:00,87.4,72.0,29.90,SE,125,0.0,2.0,61,0.00,,,0.00,weatherlink.com 1.10,2013-07-21 19:17:00,
2013-07-21 15:32:00,89.0,73.0,29.90,South,180,1.0,2.0,59,0.00,,,0.00,weatherlink.com 1.10,2013-07-21 19:32:00,
2013-07-21 15:48:00,90.1,73.0,29.89,SSE,165,0.0,1.0,58,0.00,,,0.00,weatherlink.com 1.10,2013-07-21 19:48:00,
2013-07-21 16:03:00,89.5,74.0,29.89,SSE,164,0.0,1.0,60,0.00,,,0.00,weatherlink.com 1.10,2013-07-21 20:03:00,
2013-07-21 16:18:00,90.3,72.0,29.88,South,187,0.0,5.0,56,0.00,,,0.00,weatherlink.com 1.10,2013-07-21 20:18:00,
2013-07-21 16:33:00,89.3,73.0,29.87,South,187,0.0,1.0,59,0.00,,,0.00,weatherlink.com 1.10,2013-07-21 20:33:00,
2013-07-21 16:48:00,88.8,73.0,29.87,SSE,165,0.0,2.0,59,0.00,,,0.00,weatherlink.com 1.10,2013-07-21 20:48:00,
2013-07-21 17:03:00,88.8,73.0,29.87,South,186,0.0,4.0,59,0.00,,,0.00,weatherlink.com 1.10,2013-07-21 21:03:00,
2013-07-21 17:18:00,88.4,73.0,29.87,South,177,0.0,1.0,60,0.00,,,0.00,weatherlink.com 1.10,2013-07-21 21:18:00,
2013-07-21 17:33:00,87.8,72.0,29.87,South,183,0.0,2.0,60,0.00,,,0.00,weatherlink.com 1.10,2013-07-21 21:33:00,
2013-07-21 17:48:00,87.8,72.0,29.87,South,186,0.0,1.0,60,0.00,,,0.00,weatherlink.com 1.10,2013-07-21 21:48:00,
2013-07-21 18:03:00,87.4,72.0,29.86,SSE,158,1.0,1.0,61,0.00,,,0.00,weatherlink.com 1.10,2013-07-21 22:03:00,
2013-07-21 18:18:00,86.1,73.0,29.87,WSW,240,2.0,2.0,65,0.00,,,0.00,weatherlink.com 1.10,2013-07-21 22:18:00,
2013-07-21 18:33:00,82.6,73.0,29.88,West,260,0.0,7.0,73,0.01,,,0.01,weatherlink.com 1.10,2013-07-21 22:33:00,
2013-07-21 18:48:00,75.1,71.0,29.93,NE,46,0.0,4.0,87,0.01,,,0.01,weatherlink.com 1.10,2013-07-21 22:48:00,
2013-07-21 19:03:00,72.8,70.0,29.92,NE,46,0.0,0.0,92,0.01,,,0.01,weatherlink.com 1.10,2013-07-21 23:03:00,
2013-07-21 19:18:00,73.0,72.0,29.91,NE,46,0.0,0.0,95,0.01,,,0.01,weatherlink.com 1.10,2013-07-21 23:18:00,
2013-07-21 19:33:00,73.2,72.0,29.91,NE,46,0.0,0.0,95,0.00,,,0.01,weatherlink.com 1.10,2013-07-21 23:33:00,
2013-07-21 19:48:00,73.2,72.0,29.92,NE,46,0.0,0.0,96,0.00,,,0.01,weatherlink.com 1.10,2013-07-21 23:48:00,
2013-07-21 20:03:00,73.3,72.0,29.91,NE,46,0.0,0.0,96,0.00,,,0.01,weatherlink.com 1.10,2013-07-22 00:03:00,
2013-07-21 20:18:00,73.3,72.0,29.90,NE,46,0.0,0.0,96,0.00,,,0.01,weatherlink.com 1.10,2013-07-22 00:18:00,
2013-07-21 20:33:00,73.5,73.0,29.91,NE,46,0.0,0.0,97,0.00,,,0.01,weatherlink.com 1.10,2013-07-22 00:33:00,
2013-07-21 20:48:00,73.5,73.0,29.92,NE,46,0.0,0.0,97,0.00,,,0.01,weatherlink.com 1.10,2013-07-22 00:48:00,
2013-07-21 21:03:00,73.0,72.0,29.92,NE,46,0.0,0.0,97,0.00,,,0.01,weatherlink.com 1.10,2013-07-22 01:03:00,
2013-07-21 21:18:00,72.8,72.0,29.92,NE,46,0.0,0.0,97,0.00,,,0.01,weatherlink.com 1.10,2013-07-22 01:18:00,
2013-07-21 21:33:00,72.8,72.0,29.92,NE,46,0.0,0.0,97,0.00,,,0.01,weatherlink.com 1.10,2013-07-22 01:33:00,
2013-07-21 21:48:00,72.7,72.0,29.93,NE,46,0.0,0.0,97,0.00,,,0.01,weatherlink.com 1.10,2013-07-22 01:48:00,
2013-07-21 22:03:00,72.5,72.0,29.93,NE,46,0.0,0.0,97,0.00,,,0.01,weatherlink.com 1.10,2013-07-22 02:03:00,
2013-07-21 22:18:00,72.5,72.0,29.93,NE,46,0.0,0.0,97,0.00,,,0.01,weatherlink.com 1.10,2013-07-22 02:18:00,
2013-07-21 22:33:00,72.5,72.0,29.94,NE,46,0.0,0.0,98,0.00,,,0.01,weatherlink.com 1.10,2013-07-22 02:33:00,
2013-07-21 22:48:00,72.5,72.0,29.95,NE,46,0.0,0.0,98,0.00,,,0.01,weatherlink.com 1.10,2013-07-22 02:48:00,
2013-07-21 23:03:00,72.5,72.0,29.95,NE,46,0.0,0.0,98,0.00,,,0.01,weatherlink.com 1.10,2013-07-22 03:03:00,
2013-07-21 23:18:00,72.5,72.0,29.95,NE,46,0.0,0.0,98,0.00,,,0.01,weatherlink.com 1.10,2013-07-22 03:18:00,
2013-07-21 23:33:00,72.8,73.0,29.95,ENE,61,0.0,0.0,99,0.00,,,0.01,weatherlink.com 1.10,2013-07-22 03:33:00,
2013-07-21 23:48:00,72.8,73.0,29.96,SSE,166,0.0,2.0,99,0.00,,,0.01,weatherlink.com 1.10,2013-07-22 03:48:00,